createdAt,value
2019-06-20T00:00:12.793Z,17.59
2019-06-20T00:02:43.089Z,17.47
2019-06-20T00:05:13.742Z,17.38
2019-06-20T00:07:44.064Z,17.22
2019-06-20T00:10:14.522Z,17.18
2019-06-20T00:12:59.562Z,17.03
2019-06-20T00:15:17.629Z,16.91
2019-06-20T00:17:47.973Z,16.77
2019-06-20T00:20:18.283Z,16.69
2019-06-20T00:22:50.298Z,16.56
2019-06-20T00:25:20.653Z,16.50
2019-06-20T00:27:50.972Z,16.41
2019-06-20T00:30:21.321Z,16.26
2019-06-20T00:32:51.719Z,16.09
2019-06-20T00:35:22.495Z,15.98
2019-06-20T00:37:53.211Z,15.82
2019-06-20T00:40:23.538Z,15.76
2019-06-20T00:42:53.902Z,15.60
2019-06-20T00:45:24.621Z,15.49
2019-06-20T00:47:54.909Z,15.37
2019-06-20T00:50:25.232Z,15.26
2019-06-20T00:52:55.591Z,15.19
2019-06-20T00:55:27.359Z,15.09
2019-06-20T00:57:57.671Z,15.02
2019-06-20T01:00:28.034Z,14.92
2019-06-20T01:02:58.734Z,15.12
2019-06-20T01:05:29.056Z,15.22
2019-06-20T01:07:59.427Z,15.19
2019-06-20T01:10:29.765Z,15.14
2019-06-20T01:13:00.157Z,15.37
2019-06-20T01:15:30.550Z,15.37
2019-06-20T01:18:00.995Z,15.32
2019-06-20T01:20:32.371Z,15.33
2019-06-20T01:23:03.021Z,15.34
2019-06-20T01:25:41.530Z,15.37
2019-06-20T01:28:11.926Z,15.35
2019-06-20T01:30:42.814Z,15.41
2019-06-20T01:33:14.628Z,15.43
2019-06-20T01:35:45.454Z,15.50
2019-06-20T01:38:15.968Z,15.47
2019-06-20T01:40:46.952Z,15.42
2019-06-20T01:43:17.362Z,15.36
2019-06-20T01:45:50.019Z,15.31
2019-06-20T01:48:20.430Z,15.24
2019-06-20T01:50:50.813Z,15.22
2019-06-20T01:53:23.611Z,15.14
2019-06-20T01:55:54.016Z,15.14
2019-06-20T01:58:25.072Z,15.14
2019-06-20T02:00:55.834Z,15.13
2019-06-20T02:03:26.231Z,15.08
2019-06-20T02:05:56.733Z,15.02
2019-06-20T02:08:27.133Z,14.96
2019-06-20T02:10:57.549Z,14.90
2019-06-20T02:13:28.661Z,14.91
2019-06-20T02:15:59.038Z,14.90
2019-06-20T02:18:29.415Z,14.92
2019-06-20T02:21:00.571Z,14.88
2019-06-20T02:23:30.911Z,14.88
2019-06-20T02:26:01.664Z,14.87
2019-06-20T02:28:32.445Z,14.92
2019-06-20T02:31:02.747Z,14.96
2019-06-20T02:33:33.085Z,15.12
2019-06-20T02:36:03.443Z,15.26
2019-06-20T02:38:33.770Z,15.35
2019-06-20T02:41:04.098Z,15.45
2019-06-20T02:43:34.621Z,15.53
2019-06-20T02:46:05.257Z,15.62
2019-06-20T02:48:35.664Z,15.67
2019-06-20T02:51:06.364Z,15.67
2019-06-20T02:53:37.742Z,15.75
2019-06-20T02:56:08.014Z,15.78
2019-06-20T02:58:38.643Z,15.92
2019-06-20T03:01:09.109Z,15.93
2019-06-20T03:03:39.477Z,16.02
2019-06-20T03:06:11.037Z,16.10
2019-06-20T03:08:41.735Z,16.20
2019-06-20T03:11:12.549Z,16.27
2019-06-20T03:13:42.947Z,16.29
2019-06-20T03:16:13.361Z,16.29
2019-06-20T03:18:45.838Z,16.33
2019-06-20T03:21:16.232Z,16.39
2019-06-20T03:23:46.683Z,16.46
2019-06-20T03:26:17.147Z,16.49
2019-06-20T03:28:48.166Z,16.56
2019-06-20T03:31:18.657Z,16.71
2019-06-20T03:33:50.302Z,16.73
2019-06-20T03:36:21.636Z,16.79
2019-06-20T03:38:51.997Z,16.91
2019-06-20T03:41:22.389Z,16.96
2019-06-20T03:43:52.801Z,17.10
2019-06-20T03:46:23.783Z,17.20
2019-06-20T03:48:54.186Z,17.24
2019-06-20T03:51:25.580Z,17.28
2019-06-20T03:53:55.974Z,17.43
2019-06-20T03:56:28.535Z,17.53
2019-06-20T03:58:58.962Z,17.73
2019-06-20T04:01:29.568Z,17.75
2019-06-20T04:04:00.401Z,17.85
2019-06-20T04:06:31.338Z,18.02
2019-06-20T04:09:02.076Z,18.22
2019-06-20T04:11:32.841Z,18.37
2019-06-20T04:14:03.350Z,18.47
2019-06-20T04:16:33.732Z,18.65
2019-06-20T04:19:04.210Z,18.83
2019-06-20T04:21:34.745Z,18.81
2019-06-20T04:24:05.223Z,18.87
2019-06-20T04:26:35.983Z,19.03
2019-06-20T04:29:07.647Z,19.12
2019-06-20T04:31:39.694Z,19.16
2019-06-20T04:34:10.346Z,19.34
2019-06-20T04:36:41.282Z,19.54
2019-06-20T04:39:19.174Z,19.85
2019-06-20T04:41:46.165Z,20.01
2019-06-20T04:44:16.658Z,20.06
2019-06-20T04:46:56.792Z,20.19
2019-06-20T04:49:27.555Z,20.19
2019-06-20T04:51:58.181Z,20.08
2019-06-20T04:54:28.920Z,20.06
2019-06-20T04:57:02.304Z,20.17
2019-06-20T04:59:32.621Z,20.29
2019-06-20T05:02:03.262Z,20.37
2019-06-20T05:04:34.161Z,20.51
2019-06-20T05:07:11.557Z,20.42
2019-06-20T05:09:42.010Z,20.50
2019-06-20T05:12:12.665Z,20.50
2019-06-20T05:14:43.097Z,20.62
2019-06-20T05:17:13.742Z,20.98
2019-06-20T05:19:44.134Z,21.20
2019-06-20T05:22:14.547Z,21.19
2019-06-20T05:24:45.968Z,21.23
2019-06-20T05:27:16.656Z,21.41
2019-06-20T05:29:47.544Z,21.41
2019-06-20T05:32:17.963Z,21.18
2019-06-20T05:34:48.813Z,21.23
2019-06-20T05:37:19.326Z,21.59
2019-06-20T05:39:49.636Z,21.83
2019-06-20T05:42:20.315Z,21.66
2019-06-20T05:44:51.532Z,21.68
2019-06-20T05:47:21.958Z,21.89
2019-06-20T05:49:52.370Z,22.14
2019-06-20T05:52:23.221Z,22.53
2019-06-20T05:54:53.539Z,22.47
2019-06-20T05:57:23.935Z,22.60
2019-06-20T05:59:54.773Z,22.67
2019-06-20T06:02:25.142Z,22.91
2019-06-20T06:04:55.538Z,22.84
2019-06-20T06:07:27.257Z,23.02
2019-06-20T06:09:57.729Z,22.99
2019-06-20T06:12:28.163Z,23.34
2019-06-20T06:15:00.975Z,24.05
2019-06-20T06:17:31.773Z,24.66
2019-06-20T06:20:02.353Z,24.35
2019-06-20T06:22:33.575Z,24.06
2019-06-20T06:25:04.901Z,23.99
2019-06-20T06:27:35.528Z,23.56
2019-06-20T06:30:07.248Z,23.59
2019-06-20T06:32:40.410Z,23.75
2019-06-20T06:35:11.506Z,23.63
2019-06-20T06:37:42.910Z,23.48
2019-06-20T06:40:14.497Z,23.58
2019-06-20T06:42:45.059Z,23.81
2019-06-20T06:45:17.103Z,24.10
2019-06-20T06:47:47.439Z,24.11
2019-06-20T06:50:19.011Z,24.54
2019-06-20T06:52:53.558Z,25.34
2019-06-20T06:55:27.348Z,26.21
2019-06-20T06:57:56.350Z,26.19
2019-06-20T07:00:28.410Z,27.09
2019-06-20T07:02:58.780Z,27.07
2019-06-20T07:05:29.276Z,27.85
2019-06-20T07:07:59.662Z,27.41
2019-06-20T07:10:31.325Z,27.71
2019-06-20T07:13:01.878Z,28.05
2019-06-20T07:15:32.584Z,28.59
2019-06-20T07:18:05.401Z,28.91
2019-06-20T07:20:38.220Z,28.89
2019-06-20T07:23:08.548Z,29.16
2019-06-20T07:25:40.106Z,28.90
2019-06-20T07:28:10.756Z,29.13
2019-06-20T07:30:41.227Z,30.38
2019-06-20T07:33:12.062Z,30.41
2019-06-20T07:35:42.510Z,30.94
2019-06-20T07:38:12.920Z,31.07
2019-06-20T07:40:43.268Z,31.49
2019-06-20T07:43:14.974Z,32.00
2019-06-20T07:46:01.588Z,32.00
2019-06-20T07:48:17.792Z,31.84
2019-06-20T07:50:48.573Z,30.89
2019-06-20T07:53:22.814Z,30.30
2019-06-20T07:55:53.350Z,29.10
2019-06-20T07:58:23.696Z,28.88
2019-06-20T08:00:54.604Z,28.59
2019-06-20T08:03:25.288Z,28.19
2019-06-20T08:05:55.652Z,27.59
2019-06-20T08:08:26.357Z,27.95
2019-06-20T08:10:56.726Z,28.22
2019-06-20T08:13:27.436Z,28.70
2019-06-20T08:15:57.983Z,28.63
2019-06-20T08:18:28.480Z,29.05
2019-06-20T08:20:59.309Z,29.25
2019-06-20T08:23:29.752Z,29.53
2019-06-20T08:26:00.525Z,30.05
2019-06-20T08:28:31.061Z,30.94
2019-06-20T08:31:02.546Z,32.19
2019-06-20T08:33:33.507Z,31.51
2019-06-20T08:36:04.584Z,31.57
2019-06-20T08:38:35.065Z,32.54
2019-06-20T08:41:06.599Z,32.87
2019-06-20T08:43:37.897Z,33.60
2019-06-20T08:46:10.385Z,33.76
2019-06-20T08:48:40.300Z,33.80
2019-06-20T08:51:14.350Z,33.64
2019-06-20T08:53:43.000Z,34.08
2019-06-20T08:56:13.604Z,34.35
2019-06-20T08:58:44.347Z,34.43
2019-06-20T09:01:14.725Z,35.36
2019-06-20T09:03:45.428Z,36.13
2019-06-20T09:06:15.818Z,36.51
2019-06-20T09:08:46.201Z,36.11
2019-06-20T09:11:16.595Z,36.42
2019-06-20T09:13:46.951Z,36.21
2019-06-20T09:16:24.522Z,36.03
2019-06-20T09:18:53.223Z,36.45
2019-06-20T09:21:23.002Z,35.13
2019-06-20T09:23:54.167Z,34.32
2019-06-20T09:26:24.675Z,35.05
2019-06-20T09:28:55.661Z,35.83
2019-06-20T09:31:26.131Z,35.28
2019-06-20T09:34:02.422Z,35.87
2019-06-20T09:36:31.794Z,36.73
2019-06-20T09:39:03.741Z,36.05
2019-06-20T09:41:34.523Z,35.95
2019-06-20T09:44:05.418Z,37.49
2019-06-20T09:46:36.534Z,37.77
2019-06-20T09:49:07.245Z,36.14
2019-06-20T09:51:38.875Z,34.81
2019-06-20T09:54:10.104Z,34.23
2019-06-20T09:56:47.014Z,35.56
2019-06-20T09:59:27.168Z,34.01
2019-06-20T10:01:50.057Z,34.35
2019-06-20T10:04:21.573Z,34.34
2019-06-20T10:06:52.367Z,35.75
2019-06-20T10:09:22.854Z,34.76
2019-06-20T10:11:54.100Z,36.22
2019-06-20T10:14:24.910Z,37.67
2019-06-20T10:16:58.316Z,36.76
2019-06-20T10:19:29.017Z,35.21
2019-06-20T10:22:01.692Z,32.43
2019-06-20T10:24:32.061Z,32.33
2019-06-20T10:27:03.901Z,33.22
2019-06-20T10:29:34.334Z,33.42
2019-06-20T10:32:05.576Z,34.28
2019-06-20T10:34:37.051Z,34.52
2019-06-20T10:37:07.452Z,35.33
2019-06-20T10:39:38.084Z,36.66
2019-06-20T10:42:08.772Z,37.20
2019-06-20T10:44:39.150Z,37.81
2019-06-20T10:47:10.662Z,38.52
2019-06-20T10:49:42.928Z,36.51
2019-06-20T10:52:14.571Z,35.94
2019-06-20T10:54:47.289Z,36.26
2019-06-20T10:57:17.638Z,36.30
2019-06-20T10:59:48.461Z,35.45
2019-06-20T11:02:19.735Z,34.44
2019-06-20T11:04:50.024Z,35.87
2019-06-20T11:07:21.340Z,36.71
2019-06-20T11:09:52.064Z,36.91
2019-06-20T11:12:22.416Z,36.89
2019-06-20T11:14:52.889Z,35.55
2019-06-20T11:17:23.597Z,35.48
2019-06-20T11:19:54.186Z,36.36
2019-06-20T11:22:24.551Z,36.44
2019-06-20T11:24:56.003Z,36.20
2019-06-20T11:27:26.567Z,36.04
2019-06-20T11:29:57.426Z,35.49
2019-06-20T11:32:27.913Z,36.16
2019-06-20T11:34:58.301Z,36.33
2019-06-20T11:37:28.735Z,36.99
2019-06-20T11:40:00.211Z,37.07
2019-06-20T11:42:30.645Z,36.82
2019-06-20T11:45:01.011Z,35.75
2019-06-20T11:47:31.517Z,36.08
2019-06-20T11:50:02.055Z,35.61
2019-06-20T11:52:38.134Z,35.50
2019-06-20T11:55:05.079Z,35.30
2019-06-20T11:57:37.478Z,36.36
2019-06-20T12:00:08.848Z,36.87
2019-06-20T12:02:42.775Z,37.02
2019-06-20T12:05:14.781Z,37.25
2019-06-20T12:07:45.713Z,35.68
2019-06-20T12:10:18.039Z,34.04
2019-06-20T12:12:49.525Z,33.26
2019-06-20T12:15:21.048Z,33.95
2019-06-20T12:17:51.594Z,33.62
2019-06-20T12:20:23.143Z,32.87
2019-06-20T12:22:53.559Z,33.44
2019-06-20T12:25:24.189Z,34.22
2019-06-20T12:27:54.660Z,34.02
2019-06-20T12:30:25.194Z,33.90
2019-06-20T12:32:55.664Z,33.15
2019-06-20T12:35:25.996Z,31.46
2019-06-20T12:37:56.528Z,30.88
2019-06-20T12:40:27.294Z,31.97
2019-06-20T12:42:57.729Z,32.53
2019-06-20T12:45:28.491Z,33.16
2019-06-20T12:47:59.025Z,33.69
2019-06-20T12:50:29.434Z,34.35
2019-06-20T12:52:59.949Z,35.16
2019-06-20T12:55:30.290Z,35.11
2019-06-20T12:58:00.775Z,34.61
2019-06-20T13:00:32.231Z,34.62
2019-06-20T13:03:03.170Z,35.12
2019-06-20T13:05:33.566Z,34.09
2019-06-20T13:08:04.634Z,32.26
2019-06-20T13:10:35.271Z,30.96
2019-06-20T13:13:05.743Z,30.00
2019-06-20T13:15:36.216Z,29.55
2019-06-20T13:18:06.815Z,29.53
2019-06-20T13:20:40.625Z,29.38
2019-06-20T13:23:12.572Z,29.27
2019-06-20T13:25:44.473Z,28.75
2019-06-20T13:28:15.414Z,28.33
2019-06-20T13:30:49.858Z,27.90
2019-06-20T13:33:18.332Z,27.61
2019-06-20T13:35:50.899Z,27.32
2019-06-20T13:38:21.304Z,27.13
2019-06-20T13:40:51.726Z,26.85
2019-06-20T13:43:24.611Z,26.90
2019-06-20T13:45:55.321Z,26.80
2019-06-20T13:48:25.727Z,26.67
2019-06-20T13:50:56.409Z,26.61
2019-06-20T13:53:26.939Z,26.47
2019-06-20T13:55:57.346Z,26.25
2019-06-20T13:58:27.896Z,26.14
2019-06-20T14:01:00.332Z,25.79
2019-06-20T14:03:31.329Z,25.58
2019-06-20T14:06:01.967Z,25.61
2019-06-20T14:08:32.502Z,25.46
2019-06-20T14:11:03.025Z,25.25
2019-06-20T14:13:33.491Z,25.29
2019-06-20T14:16:04.145Z,25.26
2019-06-20T14:18:34.995Z,25.27
2019-06-20T14:21:05.792Z,25.34
2019-06-20T14:23:36.634Z,25.42
2019-06-20T14:26:07.359Z,25.45
2019-06-20T14:28:37.838Z,25.51
2019-06-20T14:31:08.580Z,25.45
2019-06-20T14:33:42.472Z,25.59
2019-06-20T14:36:11.335Z,25.78
2019-06-20T14:38:43.895Z,25.91
2019-06-20T14:41:14.546Z,25.96
2019-06-20T14:43:46.154Z,26.03
2019-06-20T14:46:17.277Z,26.19
2019-06-20T14:48:56.805Z,26.42
2019-06-20T14:51:30.199Z,26.48
2019-06-20T14:54:03.650Z,26.57
2019-06-20T14:56:44.514Z,26.54
2019-06-20T14:59:14.343Z,26.67
2019-06-20T15:01:55.506Z,26.73
2019-06-20T15:04:26.419Z,26.23
2019-06-20T15:06:56.893Z,26.06
2019-06-20T15:09:27.277Z,26.09
2019-06-20T15:11:57.729Z,25.93
2019-06-20T15:14:28.147Z,25.84
2019-06-20T15:16:58.757Z,25.88
2019-06-20T15:19:29.279Z,26.00
2019-06-20T15:22:01.346Z,25.98
2019-06-20T15:24:31.948Z,25.73
2019-06-20T15:27:02.311Z,25.69
2019-06-20T15:29:32.577Z,25.73
2019-06-20T15:32:02.954Z,25.71
2019-06-20T15:34:36.825Z,25.65
2019-06-20T15:37:07.958Z,25.76
2019-06-20T15:39:38.891Z,25.89
2019-06-20T15:42:09.374Z,25.94
2019-06-20T15:44:39.944Z,26.11
2019-06-20T15:47:10.367Z,26.25
2019-06-20T15:49:42.166Z,26.24
2019-06-20T15:52:15.303Z,26.26
2019-06-20T15:54:49.742Z,26.77
2019-06-20T15:57:27.844Z,27.17
2019-06-20T15:59:58.534Z,27.57
2019-06-20T16:02:29.347Z,27.36
2019-06-20T16:04:59.746Z,27.57
2019-06-20T16:07:33.134Z,27.61
2019-06-20T16:10:04.998Z,27.60
2019-06-20T16:12:35.499Z,27.70
2019-06-20T16:15:07.033Z,27.94
2019-06-20T16:17:37.813Z,28.18
2019-06-20T16:20:09.920Z,28.14
2019-06-20T16:22:40.438Z,27.98
2019-06-20T16:25:11.155Z,28.17
2019-06-20T16:27:41.475Z,28.01
2019-06-20T16:30:14.038Z,27.57
2019-06-20T16:32:50.065Z,27.32
2019-06-20T16:35:28.853Z,27.18
2019-06-20T16:37:59.162Z,27.15
2019-06-20T16:40:48.843Z,27.10
2019-06-20T16:43:19.308Z,26.92
2019-06-20T16:45:49.895Z,26.73
2019-06-20T16:48:20.595Z,26.55
2019-06-20T16:50:50.991Z,26.59
2019-06-20T16:53:23.441Z,26.40
2019-06-20T16:55:54.768Z,26.40
2019-06-20T16:58:25.133Z,26.39
2019-06-20T17:00:55.877Z,26.33
2019-06-20T17:09:44.422Z,26.09
2019-06-20T17:12:15.007Z,26.01
2019-06-20T17:14:45.424Z,26.04
2019-06-20T17:17:15.942Z,26.09
2019-06-20T17:19:46.765Z,26.10
2019-06-20T17:22:17.521Z,26.01
2019-06-20T17:24:47.883Z,25.97
2019-06-20T17:27:18.261Z,25.91
2019-06-20T17:29:48.584Z,25.93
2019-06-20T17:32:19.002Z,25.89
2019-06-20T17:34:50.293Z,25.76
2019-06-20T17:37:21.052Z,25.67
2019-06-20T17:39:51.427Z,25.52
2019-06-20T17:42:22.228Z,25.42
2019-06-20T17:44:53.935Z,25.44
2019-06-20T17:47:24.753Z,25.43
2019-06-20T17:49:55.044Z,25.36
2019-06-20T17:52:25.748Z,25.28
2019-06-20T17:54:56.913Z,25.28
2019-06-20T17:57:27.557Z,25.24
2019-06-20T17:59:58.123Z,25.10
2019-06-20T18:02:28.523Z,25.03
2019-06-20T18:04:59.231Z,24.92
2019-06-20T18:07:30.672Z,24.98
2019-06-20T18:10:01.049Z,24.79
2019-06-20T18:12:31.461Z,24.81
2019-06-20T18:15:02.927Z,24.70
2019-06-20T18:17:33.337Z,24.67
2019-06-20T18:20:03.650Z,24.62
2019-06-20T18:22:33.940Z,24.44
2019-06-20T18:25:07.151Z,24.42
2019-06-20T18:27:37.463Z,24.35
2019-06-20T18:30:08.569Z,24.21
2019-06-20T18:32:39.217Z,24.12
2019-06-20T18:35:10.224Z,24.02
2019-06-20T18:37:40.968Z,23.93
2019-06-20T18:40:14.822Z,23.91
2019-06-20T18:42:47.990Z,23.83
2019-06-20T18:45:18.678Z,23.78
2019-06-20T18:47:49.067Z,23.86
2019-06-20T18:50:19.885Z,23.77
2019-06-20T18:52:52.551Z,23.76
2019-06-20T18:55:22.688Z,23.75
2019-06-20T18:57:53.060Z,23.70
2019-06-20T19:00:34.129Z,23.60
2019-06-20T19:02:55.985Z,23.50
2019-06-20T19:05:26.788Z,23.44
2019-06-20T19:07:57.125Z,23.44
2019-06-20T19:10:28.184Z,23.38
2019-06-20T19:12:58.870Z,23.32
2019-06-20T19:15:30.783Z,23.30
2019-06-20T19:18:01.141Z,23.25
2019-06-20T19:20:31.801Z,23.21
2019-06-20T19:23:02.518Z,23.17
2019-06-20T19:25:32.989Z,23.10
2019-06-20T19:28:05.019Z,23.04
2019-06-20T19:30:43.817Z,22.97
2019-06-20T19:33:14.101Z,22.94
2019-06-20T19:35:44.435Z,22.87
2019-06-20T19:38:15.326Z,22.79
2019-06-20T19:40:47.379Z,22.72
2019-06-20T19:43:18.142Z,22.63
2019-06-20T19:45:49.139Z,22.59
2019-06-20T19:48:19.725Z,22.59
2019-06-20T19:50:50.060Z,22.52
2019-06-20T19:53:20.576Z,22.52
2019-06-20T19:55:50.956Z,22.52
2019-06-20T19:58:21.620Z,22.45
2019-06-20T20:00:52.102Z,22.46
2019-06-20T20:03:23.519Z,22.39
2019-06-20T20:05:53.934Z,22.37
2019-06-20T20:08:24.349Z,22.39
2019-06-20T20:10:54.994Z,22.34
2019-06-20T20:13:27.331Z,22.33
2019-06-20T20:15:57.670Z,22.29
2019-06-20T20:18:28.230Z,22.26
2019-06-20T20:20:58.577Z,22.24
2019-06-20T20:23:29.003Z,22.12
2019-06-20T20:25:59.375Z,22.13
2019-06-20T20:28:29.715Z,22.03
2019-06-20T20:31:00.073Z,21.88
2019-06-20T20:33:30.511Z,21.81
2019-06-20T20:36:02.063Z,21.87
2019-06-20T20:38:32.913Z,21.82
2019-06-20T20:41:03.355Z,21.78
2019-06-20T20:43:33.691Z,21.73
2019-06-20T20:46:04.104Z,21.67
2019-06-20T20:48:34.477Z,21.59
2019-06-20T20:51:04.934Z,21.50
2019-06-20T20:53:35.312Z,21.40
2019-06-20T20:56:05.688Z,21.31
2019-06-20T20:58:36.080Z,21.23
2019-06-20T21:01:18.748Z,21.19
2019-06-20T21:03:49.069Z,21.18
2019-06-20T21:06:23.208Z,21.08
2019-06-20T21:11:22.380Z,20.97
2019-06-20T21:13:53.083Z,20.93
2019-06-20T21:16:23.496Z,20.83
2019-06-20T21:18:53.845Z,20.80
2019-06-20T21:21:24.219Z,20.70
2019-06-20T21:23:56.110Z,20.65
2019-06-20T21:26:26.427Z,20.63
2019-06-20T21:28:57.605Z,20.54
2019-06-20T21:31:27.945Z,20.46
2019-06-20T21:33:58.273Z,20.34
2019-06-20T21:36:29.172Z,20.27
2019-06-20T21:38:59.490Z,20.17
2019-06-20T21:41:29.803Z,20.10
2019-06-20T21:44:00.710Z,20.04
2019-06-20T21:46:33.051Z,19.93
2019-06-20T21:49:04.056Z,19.81
2019-06-20T21:51:35.124Z,19.70
2019-06-20T21:54:07.690Z,19.62
2019-06-20T21:56:38.024Z,19.49
2019-06-20T21:59:08.467Z,19.45
2019-06-20T22:01:39.572Z,19.39
2019-06-20T22:04:10.533Z,19.27
2019-06-20T22:06:42.730Z,19.20
2019-06-20T22:09:13.179Z,19.17
2019-06-20T22:11:43.936Z,19.21
2019-06-20T22:14:14.509Z,19.18
2019-06-20T22:16:45.507Z,19.20
2019-06-20T22:19:15.799Z,19.17
2019-06-20T22:21:46.711Z,19.29
2019-06-20T22:24:17.199Z,19.44
2019-06-20T22:26:48.015Z,19.43
2019-06-20T22:29:18.178Z,19.54
2019-06-20T22:31:48.580Z,19.57
2019-06-20T22:34:19.679Z,19.68
2019-06-20T22:36:50.047Z,19.64
2019-06-20T22:39:20.400Z,19.69
2019-06-20T22:41:50.715Z,19.66
2019-06-20T22:44:21.463Z,19.67
2019-06-20T22:46:51.798Z,19.65
2019-06-20T22:49:22.787Z,19.58
2019-06-20T22:51:53.493Z,19.48
2019-06-20T22:54:23.912Z,19.34
2019-06-20T22:56:54.267Z,19.21
2019-06-20T22:59:24.690Z,19.10
2019-06-20T23:01:55.049Z,18.96
2019-06-20T23:04:27.681Z,19.01
2019-06-20T23:06:58.017Z,18.90
2019-06-20T23:09:29.213Z,18.81
2019-06-20T23:11:59.644Z,18.77
2019-06-20T23:14:30.004Z,18.65
2019-06-20T23:17:00.702Z,18.62
2019-06-20T23:19:31.120Z,18.59
2019-06-20T23:22:01.435Z,18.56
2019-06-20T23:24:32.292Z,18.58
2019-06-20T23:27:02.703Z,18.49
2019-06-20T23:29:33.407Z,18.47
2019-06-20T23:32:03.991Z,18.45
2019-06-20T23:34:37.457Z,18.50
2019-06-20T23:37:12.664Z,18.46
2019-06-20T23:39:39.798Z,18.47
2019-06-20T23:42:10.164Z,18.53
2019-06-20T23:44:40.451Z,18.45
2019-06-20T23:47:11.641Z,18.44
2019-06-20T23:49:41.969Z,18.41
2019-06-20T23:52:16.833Z,18.31
2019-06-20T23:54:48.169Z,18.18
2019-06-20T23:57:21.983Z,18.12
2019-06-20T23:59:52.310Z,18.15
